sensor_id;sensor_type;location;lat;lon;timestamp;P1;durP1;ratioP1;P2;durP2;ratioP2
25758;SDS011;13604;52.496;13.456;2022-07-18T00:02:23;9.23;;;5.00;;
25758;SDS011;13604;52.496;13.456;2022-07-18T00:04:48;8.88;;;4.40;;
25758;SDS011;13604;52.496;13.456;2022-07-18T00:07:14;10.48;;;4.32;;
25758;SDS011;13604;52.496;13.456;2022-07-18T00:09:40;7.65;;;3.97;;
25758;SDS011;13604;52.496;13.456;2022-07-18T00:12:06;7.28;;;3.83;;
25758;SDS011;13604;52.496;13.456;2022-07-18T00:14:32;7.05;;;3.85;;
25758;SDS011;13604;52.496;13.456;2022-07-18T00:16:58;8.02;;;3.65;;
25758;SDS011;13604;52.496;13.456;2022-07-18T00:19:24;7.32;;;3.55;;
25758;SDS011;13604;52.496;13.456;2022-07-18T00:21:49;6.38;;;3.40;;
25758;SDS011;13604;52.496;13.456;2022-07-18T00:24:15;6.75;;;3.47;;
25758;SDS011;13604;52.496;13.456;2022-07-18T00:26:40;4.70;;;3.10;;
25758;SDS011;13604;52.496;13.456;2022-07-18T00:29:05;8.35;;;3.85;;
25758;SDS011;13604;52.496;13.456;2022-07-18T00:31:30;7.13;;;3.90;;
25758;SDS011;13604;52.496;13.456;2022-07-18T00:33:56;6.88;;;3.63;;
25758;SDS011;13604;52.496;13.456;2022-07-18T00:36:21;6.90;;;3.47;;
25758;SDS011;13604;52.496;13.456;2022-07-18T00:38:46;6.47;;;3.40;;
25758;SDS011;13604;52.496;13.456;2022-07-18T00:41:15;6.45;;;3.25;;
25758;SDS011;13604;52.496;13.456;2022-07-18T00:43:41;4.07;;;2.95;;
25758;SDS011;13604;52.496;13.456;2022-07-18T00:46:07;8.18;;;3.22;;
25758;SDS011;13604;52.496;13.456;2022-07-18T00:48:32;5.82;;;3.50;;
25758;SDS011;13604;52.496;13.456;2022-07-18T00:50:57;6.75;;;3.20;;
25758;SDS011;13604;52.496;13.456;2022-07-18T00:53:24;5.03;;;3.00;;
25758;SDS011;13604;52.496;13.456;2022-07-18T00:55:49;6.28;;;3.08;;
25758;SDS011;13604;52.496;13.456;2022-07-18T00:58:16;5.30;;;3.10;;
25758;SDS011;13604;52.496;13.456;2022-07-18T01:00:42;5.25;;;2.60;;
25758;SDS011;13604;52.496;13.456;2022-07-18T01:03:26;8.13;;;2.87;;
25758;SDS011;13604;52.496;13.456;2022-07-18T01:05:51;7.13;;;3.17;;
25758;SDS011;13604;52.496;13.456;2022-07-18T01:08:17;7.22;;;3.00;;
25758;SDS011;13604;52.496;13.456;2022-07-18T01:10:42;8.00;;;3.50;;
25758;SDS011;13604;52.496;13.456;2022-07-18T01:13:08;9.80;;;3.72;;
25758;SDS011;13604;52.496;13.456;2022-07-18T01:15:33;7.22;;;3.28;;
25758;SDS011;13604;52.496;13.456;2022-07-18T01:17:59;5.30;;;2.50;;
25758;SDS011;13604;52.496;13.456;2022-07-18T01:20:28;6.55;;;2.70;;
25758;SDS011;13604;52.496;13.456;2022-07-18T01:22:55;5.85;;;2.67;;
25758;SDS011;13604;52.496;13.456;2022-07-18T01:25:20;4.53;;;2.58;;
25758;SDS011;13604;52.496;13.456;2022-07-18T01:27:46;6.25;;;2.80;;
25758;SDS011;13604;52.496;13.456;2022-07-18T01:30:11;8.25;;;3.10;;
25758;SDS011;13604;52.496;13.456;2022-07-18T01:32:36;6.50;;;2.92;;
25758;SDS011;13604;52.496;13.456;2022-07-18T01:35:02;6.55;;;3.17;;
25758;SDS011;13604;52.496;13.456;2022-07-18T01:37:28;7.82;;;3.40;;
25758;SDS011;13604;52.496;13.456;2022-07-18T01:39:54;7.07;;;3.15;;
25758;SDS011;13604;52.496;13.456;2022-07-18T01:42:19;6.80;;;3.08;;
25758;SDS011;13604;52.496;13.456;2022-07-18T01:44:45;6.75;;;2.67;;
25758;SDS011;13604;52.496;13.456;2022-07-18T01:47:11;7.78;;;2.92;;
25758;SDS011;13604;52.496;13.456;2022-07-18T01:49:37;5.13;;;2.72;;
25758;SDS011;13604;52.496;13.456;2022-07-18T01:52:03;5.72;;;3.17;;
25758;SDS011;13604;52.496;13.456;2022-07-18T01:54:30;5.72;;;3.08;;
25758;SDS011;13604;52.496;13.456;2022-07-18T01:56:58;6.38;;;2.65;;
25758;SDS011;13604;52.496;13.456;2022-07-18T01:59:27;5.47;;;3.10;;
25758;SDS011;13604;52.496;13.456;2022-07-18T02:01:53;4.28;;;2.60;;
25758;SDS011;13604;52.496;13.456;2022-07-18T02:04:18;5.43;;;3.25;;
25758;SDS011;13604;52.496;13.456;2022-07-18T02:06:44;6.95;;;3.25;;
25758;SDS011;13604;52.496;13.456;2022-07-18T02:09:10;4.63;;;2.95;;
25758;SDS011;13604;52.496;13.456;2022-07-18T02:11:36;5.53;;;2.55;;
25758;SDS011;13604;52.496;13.456;2022-07-18T02:14:02;9.48;;;2.60;;
25758;SDS011;13604;52.496;13.456;2022-07-18T02:16:28;6.35;;;2.75;;
25758;SDS011;13604;52.496;13.456;2022-07-18T02:18:54;9.57;;;2.88;;
25758;SDS011;13604;52.496;13.456;2022-07-18T02:21:19;6.13;;;2.75;;
25758;SDS011;13604;52.496;13.456;2022-07-18T02:23:45;3.78;;;2.45;;
25758;SDS011;13604;52.496;13.456;2022-07-18T02:26:10;5.35;;;2.50;;
25758;SDS011;13604;52.496;13.456;2022-07-18T02:28:36;6.18;;;2.58;;
25758;SDS011;13604;52.496;13.456;2022-07-18T02:31:02;5.90;;;2.65;;
25758;SDS011;13604;52.496;13.456;2022-07-18T02:33:28;8.30;;;2.75;;
25758;SDS011;13604;52.496;13.456;2022-07-18T02:35:54;7.65;;;2.60;;
25758;SDS011;13604;52.496;13.456;2022-07-18T02:38:19;5.30;;;2.90;;
25758;SDS011;13604;52.496;13.456;2022-07-18T02:40:44;3.88;;;2.22;;
25758;SDS011;13604;52.496;13.456;2022-07-18T02:43:10;5.63;;;3.05;;
25758;SDS011;13604;52.496;13.456;2022-07-18T02:45:35;5.53;;;2.92;;
25758;SDS011;13604;52.496;13.456;2022-07-18T02:48:00;7.00;;;2.70;;
25758;SDS011;13604;52.496;13.456;2022-07-18T02:50:26;7.03;;;2.90;;
25758;SDS011;13604;52.496;13.456;2022-07-18T02:52:51;7.38;;;2.67;;
25758;SDS011;13604;52.496;13.456;2022-07-18T02:55:16;5.03;;;2.10;;
25758;SDS011;13604;52.496;13.456;2022-07-18T02:57:42;6.40;;;2.72;;
25758;SDS011;13604;52.496;13.456;2022-07-18T03:00:09;8.73;;;2.88;;
25758;SDS011;13604;52.496;13.456;2022-07-18T03:02:35;5.43;;;2.60;;
25758;SDS011;13604;52.496;13.456;2022-07-18T03:05:02;15.07;;;2.92;;
25758;SDS011;13604;52.496;13.456;2022-07-18T03:07:27;8.40;;;3.05;;
25758;SDS011;13604;52.496;13.456;2022-07-18T03:09:53;9.35;;;2.55;;
25758;SDS011;13604;52.496;13.456;2022-07-18T03:12:18;5.25;;;3.22;;
25758;SDS011;13604;52.496;13.456;2022-07-18T03:14:44;4.80;;;3.08;;
25758;SDS011;13604;52.496;13.456;2022-07-18T03:17:09;5.78;;;2.58;;
25758;SDS011;13604;52.496;13.456;2022-07-18T03:19:35;5.28;;;3.20;;
25758;SDS011;13604;52.496;13.456;2022-07-18T03:22:01;6.35;;;2.88;;
25758;SDS011;13604;52.496;13.456;2022-07-18T03:24:27;6.00;;;3.00;;
25758;SDS011;13604;52.496;13.456;2022-07-18T03:26:52;11.40;;;3.63;;
25758;SDS011;13604;52.496;13.456;2022-07-18T03:29:17;7.55;;;3.55;;
25758;SDS011;13604;52.496;13.456;2022-07-18T03:31:43;6.45;;;3.00;;
25758;SDS011;13604;52.496;13.456;2022-07-18T03:34:08;6.88;;;3.55;;
25758;SDS011;13604;52.496;13.456;2022-07-18T03:36:33;11.57;;;3.65;;
25758;SDS011;13604;52.496;13.456;2022-07-18T03:38:59;7.18;;;3.17;;
25758;SDS011;13604;52.496;13.456;2022-07-18T03:41:24;6.82;;;3.45;;
25758;SDS011;13604;52.496;13.456;2022-07-18T03:43:49;5.00;;;3.33;;
25758;SDS011;13604;52.496;13.456;2022-07-18T03:46:15;6.88;;;3.53;;
25758;SDS011;13604;52.496;13.456;2022-07-18T03:48:40;6.57;;;3.25;;
25758;SDS011;13604;52.496;13.456;2022-07-18T03:51:06;8.70;;;3.53;;
25758;SDS011;13604;52.496;13.456;2022-07-18T03:53:31;5.45;;;3.45;;
25758;SDS011;13604;52.496;13.456;2022-07-18T03:55:56;10.70;;;4.00;;
25758;SDS011;13604;52.496;13.456;2022-07-18T03:58:22;8.38;;;3.42;;
25758;SDS011;13604;52.496;13.456;2022-07-18T04:00:47;5.65;;;3.33;;
25758;SDS011;13604;52.496;13.456;2022-07-18T04:03:13;8.43;;;3.35;;
25758;SDS011;13604;52.496;13.456;2022-07-18T04:05:38;6.25;;;3.33;;
25758;SDS011;13604;52.496;13.456;2022-07-18T04:08:03;6.80;;;3.72;;
25758;SDS011;13604;52.496;13.456;2022-07-18T04:10:29;6.32;;;3.25;;
25758;SDS011;13604;52.496;13.456;2022-07-18T04:12:55;6.22;;;3.13;;
25758;SDS011;13604;52.496;13.456;2022-07-18T04:15:21;5.70;;;3.65;;
25758;SDS011;13604;52.496;13.456;2022-07-18T04:17:48;8.05;;;3.47;;
25758;SDS011;13604;52.496;13.456;2022-07-18T04:20:14;11.35;;;4.00;;
25758;SDS011;13604;52.496;13.456;2022-07-18T04:22:51;7.32;;;3.25;;
25758;SDS011;13604;52.496;13.456;2022-07-18T04:25:22;7.10;;;3.63;;
25758;SDS011;13604;52.496;13.456;2022-07-18T04:27:49;7.18;;;3.50;;
25758;SDS011;13604;52.496;13.456;2022-07-18T04:30:15;4.90;;;3.10;;
25758;SDS011;13604;52.496;13.456;2022-07-18T04:32:42;7.32;;;3.25;;
25758;SDS011;13604;52.496;13.456;2022-07-18T04:35:07;5.97;;;3.45;;
25758;SDS011;13604;52.496;13.456;2022-07-18T04:37:34;9.88;;;4.15;;
25758;SDS011;13604;52.496;13.456;2022-07-18T04:40:00;8.20;;;3.45;;
25758;SDS011;13604;52.496;13.456;2022-07-18T04:42:26;11.95;;;4.72;;
25758;SDS011;13604;52.496;13.456;2022-07-18T04:44:52;7.32;;;3.90;;
25758;SDS011;13604;52.496;13.456;2022-07-18T04:47:17;6.32;;;4.15;;
25758;SDS011;13604;52.496;13.456;2022-07-18T04:49:43;8.13;;;4.05;;
25758;SDS011;13604;52.496;13.456;2022-07-18T04:52:08;8.32;;;3.80;;
25758;SDS011;13604;52.496;13.456;2022-07-18T04:54:33;10.98;;;4.63;;
25758;SDS011;13604;52.496;13.456;2022-07-18T04:56:59;9.55;;;4.15;;
25758;SDS011;13604;52.496;13.456;2022-07-18T04:59:24;5.82;;;3.65;;
25758;SDS011;13604;52.496;13.456;2022-07-18T05:01:49;8.05;;;4.20;;
25758;SDS011;13604;52.496;13.456;2022-07-18T05:04:15;7.32;;;3.35;;
25758;SDS011;13604;52.496;13.456;2022-07-18T05:06:40;6.45;;;3.28;;
25758;SDS011;13604;52.496;13.456;2022-07-18T05:09:05;11.15;;;3.20;;
25758;SDS011;13604;52.496;13.456;2022-07-18T05:11:31;5.70;;;3.13;;
25758;SDS011;13604;52.496;13.456;2022-07-18T05:13:56;13.60;;;3.95;;
25758;SDS011;13604;52.496;13.456;2022-07-18T05:16:21;11.80;;;3.80;;
25758;SDS011;13604;52.496;13.456;2022-07-18T05:18:47;16.80;;;4.53;;
25758;SDS011;13604;52.496;13.456;2022-07-18T05:21:12;11.75;;;4.00;;
25758;SDS011;13604;52.496;13.456;2022-07-18T05:23:37;12.55;;;3.88;;
25758;SDS011;13604;52.496;13.456;2022-07-18T05:26:03;9.05;;;3.70;;
25758;SDS011;13604;52.496;13.456;2022-07-18T05:28:28;10.93;;;3.17;;
25758;SDS011;13604;52.496;13.456;2022-07-18T05:30:53;10.50;;;3.67;;
25758;SDS011;13604;52.496;13.456;2022-07-18T05:33:19;9.57;;;3.47;;
25758;SDS011;13604;52.496;13.456;2022-07-18T05:35:45;5.60;;;3.25;;
25758;SDS011;13604;52.496;13.456;2022-07-18T05:38:10;6.85;;;3.08;;
25758;SDS011;13604;52.496;13.456;2022-07-18T05:40:35;8.10;;;3.03;;
25758;SDS011;13604;52.496;13.456;2022-07-18T05:43:01;6.68;;;3.10;;
25758;SDS011;13604;52.496;13.456;2022-07-18T05:45:27;10.15;;;3.38;;
25758;SDS011;13604;52.496;13.456;2022-07-18T05:47:53;7.57;;;3.13;;
25758;SDS011;13604;52.496;13.456;2022-07-18T05:50:18;7.65;;;3.08;;
25758;SDS011;13604;52.496;13.456;2022-07-18T05:52:44;5.35;;;2.80;;
25758;SDS011;13604;52.496;13.456;2022-07-18T05:55:10;5.53;;;2.63;;
25758;SDS011;13604;52.496;13.456;2022-07-18T05:57:35;5.45;;;2.60;;
25758;SDS011;13604;52.496;13.456;2022-07-18T06:00:02;8.18;;;3.00;;
25758;SDS011;13604;52.496;13.456;2022-07-18T06:02:29;7.18;;;2.72;;
25758;SDS011;13604;52.496;13.456;2022-07-18T06:04:55;15.45;;;3.28;;
25758;SDS011;13604;52.496;13.456;2022-07-18T06:07:20;9.20;;;2.95;;
25758;SDS011;13604;52.496;13.456;2022-07-18T06:09:45;9.27;;;3.25;;
25758;SDS011;13604;52.496;13.456;2022-07-18T06:12:11;7.97;;;2.70;;
25758;SDS011;13604;52.496;13.456;2022-07-18T06:14:36;5.90;;;2.45;;
25758;SDS011;13604;52.496;13.456;2022-07-18T06:17:01;6.38;;;2.10;;
25758;SDS011;13604;52.496;13.456;2022-07-18T06:19:27;6.32;;;2.17;;
25758;SDS011;13604;52.496;13.456;2022-07-18T06:21:52;4.13;;;2.40;;
25758;SDS011;13604;52.496;13.456;2022-07-18T06:24:17;7.65;;;2.65;;
25758;SDS011;13604;52.496;13.456;2022-07-18T06:26:43;7.55;;;2.42;;
25758;SDS011;13604;52.496;13.456;2022-07-18T06:29:08;11.80;;;2.55;;
25758;SDS011;13604;52.496;13.456;2022-07-18T06:31:33;4.65;;;2.05;;
25758;SDS011;13604;52.496;13.456;2022-07-18T06:33:59;7.82;;;2.17;;
25758;SDS011;13604;52.496;13.456;2022-07-18T06:36:24;5.07;;;2.40;;
25758;SDS011;13604;52.496;13.456;2022-07-18T06:38:50;7.95;;;2.38;;
25758;SDS011;13604;52.496;13.456;2022-07-18T06:41:16;6.93;;;2.50;;
25758;SDS011;13604;52.496;13.456;2022-07-18T06:43:41;9.45;;;2.30;;
25758;SDS011;13604;52.496;13.456;2022-07-18T06:46:07;13.98;;;2.30;;
25758;SDS011;13604;52.496;13.456;2022-07-18T06:48:32;5.20;;;2.20;;
25758;SDS011;13604;52.496;13.456;2022-07-18T06:51:00;8.30;;;2.22;;
25758;SDS011;13604;52.496;13.456;2022-07-18T06:53:29;5.80;;;1.60;;
25758;SDS011;13604;52.496;13.456;2022-07-18T06:55:54;6.78;;;1.92;;
25758;SDS011;13604;52.496;13.456;2022-07-18T06:58:20;5.18;;;2.40;;
25758;SDS011;13604;52.496;13.456;2022-07-18T07:00:45;5.07;;;2.05;;
25758;SDS011;13604;52.496;13.456;2022-07-18T07:03:11;9.85;;;2.25;;
25758;SDS011;13604;52.496;13.456;2022-07-18T07:05:36;6.72;;;2.05;;
25758;SDS011;13604;52.496;13.456;2022-07-18T07:08:01;4.30;;;1.73;;
25758;SDS011;13604;52.496;13.456;2022-07-18T07:10:27;8.52;;;2.28;;
25758;SDS011;13604;52.496;13.456;2022-07-18T07:12:52;7.03;;;1.80;;
25758;SDS011;13604;52.496;13.456;2022-07-18T07:15:19;4.22;;;2.10;;
25758;SDS011;13604;52.496;13.456;2022-07-18T07:17:45;3.70;;;1.67;;
25758;SDS011;13604;52.496;13.456;2022-07-18T07:20:11;5.68;;;1.80;;
25758;SDS011;13604;52.496;13.456;2022-07-18T07:22:40;2.63;;;1.55;;
25758;SDS011;13604;52.496;13.456;2022-07-18T07:25:13;3.90;;;2.08;;
25758;SDS011;13604;52.496;13.456;2022-07-18T07:27:40;5.85;;;1.98;;
25758;SDS011;13604;52.496;13.456;2022-07-18T07:30:06;3.33;;;1.60;;
25758;SDS011;13604;52.496;13.456;2022-07-18T07:32:35;3.03;;;1.52;;
25758;SDS011;13604;52.496;13.456;2022-07-18T07:35:05;4.53;;;1.30;;
25758;SDS011;13604;52.496;13.456;2022-07-18T07:37:36;5.28;;;1.70;;
25758;SDS011;13604;52.496;13.456;2022-07-18T07:40:06;3.33;;;1.77;;
25758;SDS011;13604;52.496;13.456;2022-07-18T07:42:32;3.67;;;1.40;;
25758;SDS011;13604;52.496;13.456;2022-07-18T07:44:57;3.97;;;1.52;;
25758;SDS011;13604;52.496;13.456;2022-07-18T07:47:23;5.97;;;1.85;;
25758;SDS011;13604;52.496;13.456;2022-07-18T07:49:48;5.10;;;1.75;;
25758;SDS011;13604;52.496;13.456;2022-07-18T07:52:13;7.32;;;1.95;;
25758;SDS011;13604;52.496;13.456;2022-07-18T07:54:42;6.03;;;1.58;;
25758;SDS011;13604;52.496;13.456;2022-07-18T07:57:09;4.28;;;1.88;;
25758;SDS011;13604;52.496;13.456;2022-07-18T07:59:35;4.78;;;1.52;;
25758;SDS011;13604;52.496;13.456;2022-07-18T08:02:00;6.22;;;1.52;;
25758;SDS011;13604;52.496;13.456;2022-07-18T08:04:26;4.13;;;1.70;;
25758;SDS011;13604;52.496;13.456;2022-07-18T08:06:51;3.65;;;1.33;;
25758;SDS011;13604;52.496;13.456;2022-07-18T08:09:16;5.80;;;1.73;;
25758;SDS011;13604;52.496;13.456;2022-07-18T08:11:42;7.10;;;1.88;;
25758;SDS011;13604;52.496;13.456;2022-07-18T08:14:07;3.67;;;1.73;;
25758;SDS011;13604;52.496;13.456;2022-07-18T08:16:34;4.78;;;1.90;;
25758;SDS011;13604;52.496;13.456;2022-07-18T08:18:59;7.32;;;2.08;;
25758;SDS011;13604;52.496;13.456;2022-07-18T08:21:24;4.65;;;2.30;;
25758;SDS011;13604;52.496;13.456;2022-07-18T08:23:49;8.13;;;2.70;;
25758;SDS011;13604;52.496;13.456;2022-07-18T08:26:15;4.47;;;2.03;;
25758;SDS011;13604;52.496;13.456;2022-07-18T08:28:40;5.15;;;2.05;;
25758;SDS011;13604;52.496;13.456;2022-07-18T08:31:06;3.85;;;1.67;;
25758;SDS011;13604;52.496;13.456;2022-07-18T08:33:31;3.85;;;1.90;;
25758;SDS011;13604;52.496;13.456;2022-07-18T08:35:56;4.25;;;1.90;;
25758;SDS011;13604;52.496;13.456;2022-07-18T08:38:21;4.35;;;1.90;;
25758;SDS011;13604;52.496;13.456;2022-07-18T08:40:47;5.07;;;2.50;;
25758;SDS011;13604;52.496;13.456;2022-07-18T08:43:13;6.25;;;2.95;;
25758;SDS011;13604;52.496;13.456;2022-07-18T08:45:41;4.75;;;2.70;;
25758;SDS011;13604;52.496;13.456;2022-07-18T08:48:07;8.02;;;2.67;;
25758;SDS011;13604;52.496;13.456;2022-07-18T08:50:33;11.68;;;2.75;;
25758;SDS011;13604;52.496;13.456;2022-07-18T08:52:59;6.05;;;2.70;;
25758;SDS011;13604;52.496;13.456;2022-07-18T08:55:25;6.10;;;3.22;;
25758;SDS011;13604;52.496;13.456;2022-07-18T08:57:51;6.60;;;3.45;;
25758;SDS011;13604;52.496;13.456;2022-07-18T09:00:17;8.15;;;3.08;;
25758;SDS011;13604;52.496;13.456;2022-07-18T09:02:43;5.53;;;2.78;;
25758;SDS011;13604;52.496;13.456;2022-07-18T09:05:16;5.30;;;2.40;;
25758;SDS011;13604;52.496;13.456;2022-07-18T09:07:42;5.85;;;2.40;;
25758;SDS011;13604;52.496;13.456;2022-07-18T09:10:08;3.25;;;2.00;;
25758;SDS011;13604;52.496;13.456;2022-07-18T09:12:33;6.50;;;2.40;;
25758;SDS011;13604;52.496;13.456;2022-07-18T09:15:08;4.88;;;2.90;;
25758;SDS011;13604;52.496;13.456;2022-07-18T09:17:38;5.90;;;3.20;;
25758;SDS011;13604;52.496;13.456;2022-07-18T09:22:33;5.22;;;3.55;;
25758;SDS011;13604;52.496;13.456;2022-07-18T09:27:37;6.30;;;4.50;;
25758;SDS011;13604;52.496;13.456;2022-07-18T09:32:40;6.82;;;4.82;;
25758;SDS011;13604;52.496;13.456;2022-07-18T09:35:14;8.13;;;5.05;;
25758;SDS011;13604;52.496;13.456;2022-07-18T09:37:51;6.03;;;4.15;;
25758;SDS011;13604;52.496;13.456;2022-07-18T09:40:18;7.30;;;4.28;;
25758;SDS011;13604;52.496;13.456;2022-07-18T09:42:53;9.55;;;4.20;;
25758;SDS011;13604;52.496;13.456;2022-07-18T09:45:27;10.98;;;4.95;;
25758;SDS011;13604;52.496;13.456;2022-07-18T09:48:01;6.93;;;4.60;;
25758;SDS011;13604;52.496;13.456;2022-07-18T09:50:33;6.55;;;4.00;;
25758;SDS011;13604;52.496;13.456;2022-07-18T09:53:10;8.20;;;3.17;;
25758;SDS011;13604;52.496;13.456;2022-07-18T09:55:41;5.00;;;2.75;;
25758;SDS011;13604;52.496;13.456;2022-07-18T09:58:20;4.68;;;2.63;;
25758;SDS011;13604;52.496;13.456;2022-07-18T10:00:50;4.63;;;3.00;;
25758;SDS011;13604;52.496;13.456;2022-07-18T10:03:17;4.75;;;2.92;;
25758;SDS011;13604;52.496;13.456;2022-07-18T10:05:43;7.25;;;3.00;;
25758;SDS011;13604;52.496;13.456;2022-07-18T10:08:11;5.63;;;2.75;;
25758;SDS011;13604;52.496;13.456;2022-07-18T10:10:39;4.97;;;3.05;;
25758;SDS011;13604;52.496;13.456;2022-07-18T10:13:06;4.05;;;2.60;;
25758;SDS011;13604;52.496;13.456;2022-07-18T10:15:34;4.60;;;2.70;;
25758;SDS011;13604;52.496;13.456;2022-07-18T10:18:02;6.72;;;2.83;;
25758;SDS011;13604;52.496;13.456;2022-07-18T10:20:36;4.20;;;2.88;;
25758;SDS011;13604;52.496;13.456;2022-07-18T10:23:23;5.45;;;2.30;;
25758;SDS011;13604;52.496;13.456;2022-07-18T10:31:22;4.82;;;2.95;;
25758;SDS011;13604;52.496;13.456;2022-07-18T10:33:49;3.15;;;2.63;;
25758;SDS011;13604;52.496;13.456;2022-07-18T10:36:15;4.72;;;2.83;;
25758;SDS011;13604;52.496;13.456;2022-07-18T10:41:31;4.78;;;3.17;;
25758;SDS011;13604;52.496;13.456;2022-07-18T10:43:58;4.82;;;2.70;;
25758;SDS011;13604;52.496;13.456;2022-07-18T10:46:23;6.50;;;2.70;;
25758;SDS011;13604;52.496;13.456;2022-07-18T10:48:49;4.07;;;2.73;;
25758;SDS011;13604;52.496;13.456;2022-07-18T10:51:16;5.10;;;2.75;;
25758;SDS011;13604;52.496;13.456;2022-07-18T10:59:02;4.35;;;2.83;;
25758;SDS011;13604;52.496;13.456;2022-07-18T11:01:53;5.97;;;2.90;;
25758;SDS011;13604;52.496;13.456;2022-07-18T11:04:21;7.10;;;2.90;;
25758;SDS011;13604;52.496;13.456;2022-07-18T11:06:54;2.72;;;2.15;;
25758;SDS011;13604;52.496;13.456;2022-07-18T11:09:44;4.68;;;2.53;;
25758;SDS011;13604;52.496;13.456;2022-07-18T11:12:18;7.22;;;2.55;;
25758;SDS011;13604;52.496;13.456;2022-07-18T11:15:01;4.78;;;2.30;;
25758;SDS011;13604;52.496;13.456;2022-07-18T11:20:24;4.70;;;2.75;;
25758;SDS011;13604;52.496;13.456;2022-07-18T11:22:52;5.32;;;2.95;;
25758;SDS011;13604;52.496;13.456;2022-07-18T11:25:18;4.57;;;3.00;;
25758;SDS011;13604;52.496;13.456;2022-07-18T11:27:44;7.35;;;2.85;;
25758;SDS011;13604;52.496;13.456;2022-07-18T11:30:10;6.47;;;2.90;;
25758;SDS011;13604;52.496;13.456;2022-07-18T11:32:41;5.38;;;2.80;;
25758;SDS011;13604;52.496;13.456;2022-07-18T11:35:07;3.80;;;2.60;;
25758;SDS011;13604;52.496;13.456;2022-07-18T11:37:33;2.65;;;2.38;;
25758;SDS011;13604;52.496;13.456;2022-07-18T11:40:04;4.95;;;3.08;;
25758;SDS011;13604;52.496;13.456;2022-07-18T11:42:36;4.60;;;2.47;;
25758;SDS011;13604;52.496;13.456;2022-07-18T11:45:03;5.40;;;3.00;;
25758;SDS011;13604;52.496;13.456;2022-07-18T11:47:29;5.63;;;2.75;;
25758;SDS011;13604;52.496;13.456;2022-07-18T11:49:55;6.57;;;3.23;;
25758;SDS011;13604;52.496;13.456;2022-07-18T11:52:20;4.50;;;3.05;;
25758;SDS011;13604;52.496;13.456;2022-07-18T11:54:46;5.93;;;3.10;;
25758;SDS011;13604;52.496;13.456;2022-07-18T11:57:11;4.67;;;3.23;;
25758;SDS011;13604;52.496;13.456;2022-07-18T11:59:38;6.00;;;3.13;;
25758;SDS011;13604;52.496;13.456;2022-07-18T12:02:04;10.38;;;3.70;;
25758;SDS011;13604;52.496;13.456;2022-07-18T12:04:30;4.05;;;3.45;;
25758;SDS011;13604;52.496;13.456;2022-07-18T12:07:11;5.03;;;3.15;;
25758;SDS011;13604;52.496;13.456;2022-07-18T12:09:41;3.45;;;2.88;;
25758;SDS011;13604;52.496;13.456;2022-07-18T12:12:10;7.00;;;3.40;;
25758;SDS011;13604;52.496;13.456;2022-07-18T12:14:37;4.55;;;3.50;;
25758;SDS011;13604;52.496;13.456;2022-07-18T12:17:04;7.78;;;3.70;;
25758;SDS011;13604;52.496;13.456;2022-07-18T12:19:34;4.30;;;3.22;;
25758;SDS011;13604;52.496;13.456;2022-07-18T12:24:55;4.10;;;3.45;;
25758;SDS011;13604;52.496;13.456;2022-07-18T12:29:57;5.15;;;3.20;;
25758;SDS011;13604;52.496;13.456;2022-07-18T12:32:51;4.10;;;3.30;;
25758;SDS011;13604;52.496;13.456;2022-07-18T12:35:24;4.25;;;3.38;;
25758;SDS011;13604;52.496;13.456;2022-07-18T12:37:54;4.72;;;3.55;;
25758;SDS011;13604;52.496;13.456;2022-07-18T12:43:11;5.93;;;3.38;;
25758;SDS011;13604;52.496;13.456;2022-07-18T12:45:37;4.47;;;3.45;;
25758;SDS011;13604;52.496;13.456;2022-07-18T12:48:04;5.95;;;3.60;;
25758;SDS011;13604;52.496;13.456;2022-07-18T12:50:31;4.00;;;3.60;;
25758;SDS011;13604;52.496;13.456;2022-07-18T12:52:56;4.60;;;3.50;;
25758;SDS011;13604;52.496;13.456;2022-07-18T12:55:22;6.38;;;3.67;;
25758;SDS011;13604;52.496;13.456;2022-07-18T12:57:48;6.53;;;3.45;;
25758;SDS011;13604;52.496;13.456;2022-07-18T13:00:13;4.30;;;3.42;;
25758;SDS011;13604;52.496;13.456;2022-07-18T13:02:39;4.75;;;3.20;;
25758;SDS011;13604;52.496;13.456;2022-07-18T13:05:06;5.82;;;3.58;;
25758;SDS011;13604;52.496;13.456;2022-07-18T13:07:32;6.15;;;3.05;;
25758;SDS011;13604;52.496;13.456;2022-07-18T13:09:57;4.07;;;3.30;;
25758;SDS011;13604;52.496;13.456;2022-07-18T13:12:22;4.27;;;3.37;;
25758;SDS011;13604;52.496;13.456;2022-07-18T13:14:48;5.20;;;3.08;;
25758;SDS011;13604;52.496;13.456;2022-07-18T13:17:13;4.80;;;3.60;;
25758;SDS011;13604;52.496;13.456;2022-07-18T13:19:38;3.90;;;3.10;;
25758;SDS011;13604;52.496;13.456;2022-07-18T13:22:05;7.07;;;4.60;;
25758;SDS011;13604;52.496;13.456;2022-07-18T13:24:30;6.25;;;3.22;;
25758;SDS011;13604;52.496;13.456;2022-07-18T13:26:55;3.67;;;3.03;;
25758;SDS011;13604;52.496;13.456;2022-07-18T13:29:21;3.13;;;2.63;;
25758;SDS011;13604;52.496;13.456;2022-07-18T13:31:46;5.17;;;2.70;;
25758;SDS011;13604;52.496;13.456;2022-07-18T13:34:13;4.68;;;2.92;;
25758;SDS011;13604;52.496;13.456;2022-07-18T13:36:38;3.23;;;2.77;;
25758;SDS011;13604;52.496;13.456;2022-07-18T13:39:03;6.27;;;2.53;;
25758;SDS011;13604;52.496;13.456;2022-07-18T13:41:29;5.60;;;3.10;;
25758;SDS011;13604;52.496;13.456;2022-07-18T13:43:54;3.97;;;2.53;;
25758;SDS011;13604;52.496;13.456;2022-07-18T13:46:19;5.18;;;2.63;;
25758;SDS011;13604;52.496;13.456;2022-07-18T13:48:45;4.05;;;3.08;;
25758;SDS011;13604;52.496;13.456;2022-07-18T13:51:11;4.43;;;2.58;;
25758;SDS011;13604;52.496;13.456;2022-07-18T13:53:37;3.72;;;2.97;;
25758;SDS011;13604;52.496;13.456;2022-07-18T13:56:02;3.53;;;2.80;;
25758;SDS011;13604;52.496;13.456;2022-07-18T13:58:27;3.90;;;2.70;;
25758;SDS011;13604;52.496;13.456;2022-07-18T14:00:53;4.10;;;2.75;;
25758;SDS011;13604;52.496;13.456;2022-07-18T14:03:21;4.30;;;3.00;;
25758;SDS011;13604;52.496;13.456;2022-07-18T14:05:47;4.45;;;2.88;;
25758;SDS011;13604;52.496;13.456;2022-07-18T14:08:12;5.22;;;3.20;;
25758;SDS011;13604;52.496;13.456;2022-07-18T14:10:37;3.83;;;3.22;;
25758;SDS011;13604;52.496;13.456;2022-07-18T14:13:03;6.40;;;3.20;;
25758;SDS011;13604;52.496;13.456;2022-07-18T14:15:28;3.72;;;2.97;;
25758;SDS011;13604;52.496;13.456;2022-07-18T14:17:54;7.60;;;4.18;;
25758;SDS011;13604;52.496;13.456;2022-07-18T14:20:19;6.07;;;3.08;;
25758;SDS011;13604;52.496;13.456;2022-07-18T14:22:46;5.80;;;3.17;;
25758;SDS011;13604;52.496;13.456;2022-07-18T14:25:13;6.53;;;3.50;;
25758;SDS011;13604;52.496;13.456;2022-07-18T14:27:40;5.70;;;3.30;;
25758;SDS011;13604;52.496;13.456;2022-07-18T14:30:06;4.75;;;3.30;;
25758;SDS011;13604;52.496;13.456;2022-07-18T14:32:32;6.70;;;3.80;;
25758;SDS011;13604;52.496;13.456;2022-07-18T14:34:58;3.97;;;3.10;;
25758;SDS011;13604;52.496;13.456;2022-07-18T14:37:23;4.68;;;2.92;;
25758;SDS011;13604;52.496;13.456;2022-07-18T14:39:48;4.50;;;3.25;;
25758;SDS011;13604;52.496;13.456;2022-07-18T14:42:14;4.78;;;3.58;;
25758;SDS011;13604;52.496;13.456;2022-07-18T14:44:39;4.55;;;3.80;;
25758;SDS011;13604;52.496;13.456;2022-07-18T14:47:05;5.20;;;3.50;;
25758;SDS011;13604;52.496;13.456;2022-07-18T14:49:30;5.25;;;3.90;;
25758;SDS011;13604;52.496;13.456;2022-07-18T14:51:56;4.65;;;3.15;;
25758;SDS011;13604;52.496;13.456;2022-07-18T14:54:21;4.50;;;3.35;;
25758;SDS011;13604;52.496;13.456;2022-07-18T14:56:47;6.68;;;3.70;;
25758;SDS011;13604;52.496;13.456;2022-07-18T14:59:12;4.85;;;3.33;;
25758;SDS011;13604;52.496;13.456;2022-07-18T15:01:38;5.30;;;3.90;;
25758;SDS011;13604;52.496;13.456;2022-07-18T15:04:03;5.65;;;3.85;;